Tiempo atmosférico en la estación meteorológica de Guadalcanal, Sevilla (745 m.)



Fecha
DESCASC
Temp. máxima en grados centígrados (hora)
DESCASC
Temp. mínima en grados centígrados (hora)
DESCASC
Temp. media en grados centígrados
DESCASC
Racha de viento máxima en m/sg (hora)
DESCASC
Velocidad máxima media en intervalos de 10 minutos(hora)
DESCASC
Precipitaciones diarias en mm
DESCASC
Precipitaciones de 00:00 a 06:00 en mm
DESCASC
Precipitaciones de 06:00 a 12:00 en mm
DESCASC
Precipitaciones de 12:00 a 18:00 en mm
DESCASC
Precipitaciones de 18:00 a 24:00 en mm
DESCASC
13-10-2019 25.2 (16:50) 14 (04:30) 19.6 9.44 (16:00) 6.11 (11:10) 0 0 0 0 0
12-10-2019 29 (15:20) 18 (23:59) 23.5 8.89 (11:40) 5.28 (16:30) 0 0 0 0 0
10-10-2019 30.3 (16:00) 19.7 (00:00) 25 7.78 (15:20) 4.72 (00:10) 0 0 0 0 0
09-10-2019 31.5 (17:10) 18.3 (00:00) 24.9 7.5 (07:30) 5 (07:00) 0 0 0 0 0
08-10-2019 32.3 (16:20) 20.3 (00:00) 26.3 8.33 (15:10) 3.89 (19:10) 0 0 0 0 0
07-10-2019 31 (18:00) 18.8 (00:00) 24.9 7.78 (01:40) 5.56 (09:30) 0 0 0 0 0
06-10-2019 28.9 (16:40) 16.3 (00:00) 22.6 7.5 (20:20) 5 (06:20) 0 0 0 0 0
05-10-2019 28.5 (17:20) 15 (07:30) 21.8 8.06 (03:50) 5.83 (03:50) 0 0 0 0 0
04-10-2019 28.4 (17:10) 14.7 (00:00) 21.5 7.5 (02:00) 5.28 (02:00) 0 0 0 0 0
03-10-2019 27.3 (16:20) 14.1 (00:00) 20.7 7.5 (02:10) 4.72 (02:00) 0 0 0 0 0
02-10-2019 25.4 (17:30) 12 (00:00) 18.7 9.72 (03:20) 6.39 (04:10) 0 0 0 0 0
01-10-2019 24.8 (15:10) 15.8 (00:00) 20.3 8.89 (15:20) 4.72 (15:20) 0 0 0 0 0
30-09-2019 31.1 (15:40) 18.2 (00:00) 24.7 6.67 (17:40) 4.17 (17:50) 0 0 0 0 0
29-09-2019 31.2 (16:50) 17.7 (00:00) 24.5 7.22 (18:30) 3.89 (18:30) 0 0 0 0 0
28-09-2019 31.5 (16:20) 18.6 (00:00) 25.1 7.22 (02:00) 5 (01:00) 0 0 0 0 0
27-09-2019 31.1 (16:40) 18.5 (00:00) 24.8 6.67 (03:30) 5 (03:20) 0 0 0 0 0
26-09-2019 29.9 (18:00) 16.6 (00:00) 23.3 7.5 (01:20) 4.44 (01:20) 0 0 0 0 0
25-09-2019 25 (17:30) 12.3 (00:00) 18.7 9.44 (08:10) 6.39 (09:00) 0 0 0 0 0
24-09-2019 29.6 (17:10) 15.8 (00:00) 22.7 7.78 (09:10) 5.83 (09:10) 0 0 0 0 0
23-09-2019 25.2 (18:30) 13.3 (00:00) 19.3 5.83 (06:10) 3.89 (06:00) 0 0 0 0 0
22-09-2019 21.3 (17:40) 13.1 (00:00) 17.2 10 (01:10) 6.11 (01:50) 6.8 2.8 4 0 0
21-09-2019 19.5 (19:20) 15.5 (00:00) 17.5 9.72 (21:10) 6.67 (22:40) 0.4 0 0 0.4 0
20-09-2019 22.7 (15:10) 16.8 (00:00) 19.8 9.44 (15:10) 5.83 (15:20) 0 0 0 0 0
19-09-2019 28.1 (17:00) 15.4 (00:00) 21.8 12.5 (14:10) 4.72 (06:00) 0 0 0 0 0
18-09-2019 27.8 (17:20) 17 (00:00) 22.4 6.67 (15:10) 3.61 (15:00) 0 0 0 0 0
17-09-2019 27.9 (17:30) 18.9 (00:00) 23.4 7.78 (14:20) 4.72 (17:40) 0 0 0 0 0
16-09-2019 28.8 (17:30) 16.7 (00:00) 22.8 7.22 (15:10) 3.89 (12:50) 0 0 0 0 0

Gráficas

Temp. máximas Temp. mínimas Temp. medias Precipitaciones Rachas de viento máximas Velocidades máximas media en intervalos de 10 minutos

Datos horarios

Fecha y hora oficial Temperatura (ºC) Velocidad del viento (km/h) Dirección del viento Racha (km/h) Dirección de racha Precipitación (mm) Presión (hPa) Tendencia (hPa) Humedad (%)
2019-10-15 23:00:00 11.2 7 Nordeste 16 Norte 0 -- -- 66
2019-10-15 22:00:00 12.1 12 Norte 18 Norte 0 -- -- 62
2019-10-15 21:00:00 12.7 9 Norte 14 Norte 0 -- -- 59
2019-10-15 20:00:00 13.2 6 Norte 10 Norte 0 -- -- 53
2019-10-15 19:00:00 15 6 Norte 14 Norte 0 -- -- 49
2019-10-15 18:00:00 15.7 9 Norte 18 Oeste 0 -- -- 42
2019-10-15 17:00:00 15.9 8 Norte 19 Norte 0 -- -- 47
2019-10-15 16:00:00 15.6 5 Nordeste 19 Norte 0 -- -- 53
2019-10-15 15:00:00 14.7 9 Nordeste 18 Nordeste 0 -- -- 56
2019-10-15 14:00:00 13.2 8 Norte 21 Norte 0 -- -- 67
2019-10-15 13:00:00 12.5 9 Norte 19 Nordeste 0 -- -- 66
2019-10-15 12:00:00 11.6 10 Norte 19 Nordeste 0 -- -- 72
2019-10-15 11:00:00 10.1 8 Nordeste 19 Norte 0 -- -- 84
2019-10-15 10:00:00 8.6 12 Norte 23 Norte 0 -- -- 90
2019-10-15 09:00:00 7.7 13 Norte 21 Norte 0 -- -- 89
2019-10-15 08:00:00 7.8 9 Norte 27 Noroeste 0 -- -- 87
2019-10-15 07:00:00 7.7 12 Norte 22 Norte 0 -- -- 86
2019-10-15 06:00:00 7 6 Norte 22 Norte 0 -- -- 87
2019-10-15 05:00:00 8.6 11 Norte 23 Norte 0 -- -- 78
2019-10-15 04:00:00 8.8 12 Norte 23 Norte 0 -- -- 76
2019-10-15 03:00:00 9 8 Noroeste 23 Noroeste 0 -- -- 79
2019-10-15 02:00:00 9.4 12 Norte 27 Norte 0 -- -- 78
2019-10-15 01:00:00 10.2 12 Norte 26 Noroeste 0 -- -- 76
2019-10-15 00:00:00 10.8 7 Noroeste 23 Oeste 0 -- -- 76
2019-10-14 23:00:00 11.2 9 Noroeste 23 Oeste 0 -- -- 80
2019-10-14 22:00:00 11.5 9 Noroeste 22 Noroeste 0 -- -- 81
2019-10-14 21:00:00 11.5 12 Noroeste 29 Noroeste 0 -- -- 77
2019-10-14 20:00:00 12.4 6 Noroeste 21 Oeste 0.6 -- -- 90
2019-10-14 19:00:00 13 11 Oeste 31 Sudoeste 0.8 -- -- 90
2019-10-14 18:00:00 14.7 11 Noroeste 35 Noroeste 0 -- -- 79
2019-10-14 17:00:00 18.1 19 Sudoeste 37 Sudoeste 0 -- -- 49
2019-10-14 16:00:00 19 22 Sudoeste 45 Oeste 0 -- -- 45
2019-10-14 15:00:00 19 20 Sudoeste 41 Sudoeste 0 -- -- 51
2019-10-14 14:00:00 18.9 21 Sudoeste 34 Sudoeste 0 -- -- 53
2019-10-14 13:00:00 16.8 10 Sudoeste 24 Oeste 0 -- -- 62
2019-10-14 12:00:00 15.2 9 Oeste 20 Oeste 0 -- -- 72
2019-10-14 11:00:00 14.4 8 Oeste 22 Oeste 0 -- -- 80
2019-10-14 10:00:00 13.8 10 Oeste 20 Oeste 0 -- -- 84
2019-10-14 09:00:00 14.4 10 Sudoeste 42 Sur 0 -- -- 87
2019-10-14 08:00:00 15.1 28 Sudoeste 45 Sudoeste 0 -- -- 90
2019-10-14 07:00:00 15 22 Sudoeste 37 Sudoeste 0 -- -- 86
2019-10-14 06:00:00 14.8 18 Sudoeste 39 Sudoeste 0 -- -- 85
2019-10-14 05:00:00 16.1 24 Sudoeste 42 Sudoeste 0 -- -- 72
2019-10-14 04:00:00 17 15 Sudoeste 30 Sudoeste 0 -- -- 75
2019-10-14 03:00:00 17.7 19 Sudoeste 30 Sur 0 -- -- 69
2019-10-14 02:00:00 17.4 11 Sudoeste 18 Sudoeste 0 -- -- 65
2019-10-14 01:00:00 18.6 6 Sudoeste 13 Sudoeste 0 -- -- 64
2019-10-14 00:00:00 19.3 6 Sudoeste 14 Sudoeste 0 -- -- 61
2019-10-13 23:00:00 20.6 9 Sudoeste 17 Sudoeste 0 -- -- 56
2019-10-13 22:00:00 20.6 8 Sur 15 Sur 0 -- -- 56
2019-10-13 21:00:00 21.2 10 Sur 19 Sudoeste 0 -- -- 54
2019-10-13 20:00:00 22.2 12 Sudoeste 24 Sur 0 -- -- 50
2019-10-13 19:00:00 24 14 Sudoeste 31 Sur 0 -- -- 45
2019-10-13 18:00:00 25 15 Sudoeste 30 Sur 0 -- -- 43
2019-10-13 17:00:00 25.1 16 Sudoeste 33 Sudoeste 0 -- -- 44
2019-10-13 16:00:00 24.9 20 Sudoeste 34 Sudoeste 0 -- -- 41
2019-10-13 15:00:00 24.4 18 Sudoeste 32 Sur 0 -- -- 46
2019-10-13 14:00:00 22.6 18 Sudoeste 32 Sur 0 -- -- 52
2019-10-13 13:00:00 20.8 15 Sur 27 Sudoeste 0 -- -- 60
2019-10-13 12:00:00 18.7 15 Sur 31 Sudoeste 0 -- -- 69
2019-10-13 11:00:00 17 19 Sudoeste 33 Sudoeste 0 -- -- 75
2019-10-13 10:00:00 15.7 16 Sudoeste 26 Sudoeste 0 -- -- 82
2019-10-13 09:00:00 14.9 13 Sudoeste 26 Sudoeste 0 -- -- 86
2019-10-13 08:00:00 14.8 17 Sudoeste 26 Oeste 0 -- -- 88
2019-10-13 07:00:00 14.5 14 Sudoeste 26 Sudoeste 0 -- -- 89
2019-10-13 06:00:00 14.5 17 Sudoeste 30 Sudoeste 0 -- -- 85
2019-10-13 05:00:00 14.4 13 Sudoeste 20 Sur 0 -- -- 82
2019-10-13 04:00:00 14.3 11 Sudoeste 18 Sudoeste 0 -- -- 88
2019-10-13 03:00:00 14.9 11 Sudoeste 25 Sudoeste 0 -- -- 88
2019-10-13 02:00:00 15.6 12 Sudoeste 21 Sudoeste 0 -- -- 89
2019-10-13 01:00:00 16.9 12 Sudoeste 27 Sudoeste 0 -- -- 80
2019-10-13 00:00:00 18 14 Sur 23 Sudoeste 0 -- -- 73
2019-10-12 23:00:00 19 14 Sur 27 Sudoeste 0 -- -- 70
2019-10-12 22:00:00 20.1 17 Sudoeste 27 Sur 0 -- -- 71
2019-10-12 21:00:00 20.9 15 Sudoeste 28 Sudoeste 0 -- -- 67
2019-10-12 20:00:00 22.4 15 Sudoeste 27 Sur 0 -- -- 61
2019-10-12 19:00:00 24.4 17 Sudoeste 31 Sudoeste 0 -- -- 53
2019-10-12 18:00:00 26.5 17 Sudoeste 32 Sudoeste 0 -- -- 42
2019-10-12 17:00:00 27.7 19 Sudoeste 31 Sudoeste 0 -- -- 35
2019-10-12 16:00:00 27.9 17 Sur 31 Sur 0 -- -- 33
2019-10-12 15:00:00 28.7 15 Sudoeste 31 Sur 0 -- -- 31
2019-10-12 14:00:00 28.6 15 Sur 27 Sur 0 -- -- 31
2019-10-12 13:00:00 27.1 17 Sur 28 Sur 0 -- -- 33
2019-10-12 12:00:00 24.5 17 Sur 32 Sudeste 0 -- -- 39
2019-10-12 11:00:00 23.1 13 Sur 30 Sur 0 -- -- 42
2019-10-12 10:00:00 20.7 4 Sur 18 Sur 0 -- -- 51
2019-10-12 09:00:00 20.4 9 Sur 21 Sudeste 0 -- -- 49
2019-10-12 08:00:00 20.4 2 Este 6 Sudeste 0 -- -- 47
2019-10-12 07:00:00 19.9 3 Sudoeste 9 Sur 0 -- -- 50
2019-10-12 06:00:00 20.2 3 Sudoeste 6 Sudeste 0 -- -- 50
2019-10-12 05:00:00 20.3 0 Calma 9 Oeste 0 -- -- 52
2019-10-12 04:00:00 21 5 Sudoeste 12 Oeste 0 -- -- 51
2019-10-12 03:00:00 21.1 6 Sudoeste 15 Sudoeste 0 -- -- 50
2019-10-12 02:00:00 20.8 5 Oeste 9 Sudoeste 0 -- -- 50
2019-10-12 01:00:00 20.9 5 Sudoeste 12 Sudoeste 0 -- -- 48
2019-10-12 00:00:00 20.4 3 Oeste 11 Sudoeste 0 -- -- 48
2019-10-11 23:00:00 21.3 5 Oeste 17 Sudoeste 0 -- -- 45
2019-10-11 22:00:00 21.6 10 Sudoeste 17 Sudoeste 0 -- -- 45
2019-10-11 21:00:00 22.3 6 Sudoeste 16 Sur 0 -- -- 44
2019-10-11 20:00:00 22.9 9 Sudoeste 18 Sudoeste 0 -- -- 44
2019-10-11 19:00:00 24 12 Sudoeste 21 Sudoeste 0 -- -- 41
2019-10-11 18:00:00 24.8 13 Sudoeste 26 Sudoeste 0 -- -- 39
2019-10-11 17:00:00 24.4 12 Sudoeste 24 Sur 0 -- -- 41
2019-10-11 16:00:00 25.2 15 Sudoeste 25 Sur 0 -- -- 37
2019-10-11 15:00:00 25 8 Sudoeste 20 Sur 0 -- -- 36
2019-10-11 14:00:00 24.4 14 Sur 23 Sur 0 -- -- 37
2019-10-11 13:00:00 24.3 16 Sur 27 Sur 0 -- -- 39
2019-10-11 12:00:00 23.3 12 Sur 26 Sur 0 -- -- 40
2019-10-11 11:00:00 21.7 13 Sur 25 Sur 0 -- -- 48
2019-10-11 10:00:00 20.1 12 Sur 22 Sur 0 -- -- 54
2019-10-11 09:00:00 18.2 5 Sudoeste 28 Sur 0 -- -- 64
2019-10-11 08:00:00 17.6 15 Sur 28 Sur 0 -- -- 70
2019-10-11 07:00:00 17.7 13 Sudoeste 27 Sur 0 -- -- 76
2019-10-11 06:00:00 18 11 Sur 22 Sur 0 -- -- 70
2019-10-11 05:00:00 17.5 10 Sudoeste 16 Sur 0 -- -- 73
2019-10-11 04:00:00 18.8 12 Sudeste 24 Sur 0 -- -- 65
2019-10-11 03:00:00 19.6 6 Sudeste 16 Sudeste 0 -- -- 58
2019-10-11 02:00:00 20 6 Sudoeste 14 Oeste 0 -- -- 59
2019-10-11 01:00:00 20.2 5 Oeste 14 Sudoeste 0 -- -- 57
2019-10-11 00:00:00 21 5 Sudoeste 11 Sur 0 -- -- 49
2019-10-10 23:00:00 22.3 6 Sudeste 17 Sudeste 0 -- -- 48
2019-10-10 22:00:00 22.5 8 Sudeste 15 Sur 0 -- -- 48
2019-10-10 21:00:00 23.7 4 Sur 10 Sur 0 -- -- 47
2019-10-10 20:00:00 26.2 6 Sur 14 Sur 0 -- -- 43
2019-10-10 19:00:00 28.5 10 Sur 17 Sur 0 -- -- 40
2019-10-10 18:00:00 29.3 8 Sudoeste 23 Sur 0 -- -- 38
2019-10-10 17:00:00 30 12 Sudoeste 23 Sur 0 -- -- 39
2019-10-10 16:00:00 30.3 13 Sur 28 Sudoeste 0 -- -- 36
2019-10-10 15:00:00 29.7 10 Sur 24 Sur 0 -- -- 37
2019-10-10 14:00:00 28.5 12 Sur 23 Sur 0 -- -- 39
2019-10-10 13:00:00 26.9 12 Sudoeste 26 Sur 0 -- -- 41
2019-10-10 12:00:00 25.2 11 Sur 23 Sur 0 -- -- 44
2019-10-10 11:00:00 23.6 11 Sudoeste 18 Sur 0 -- -- 46
2019-10-10 10:00:00 21.9 8 Sur 15 Sudeste 0 -- -- 48
2019-10-10 09:00:00 20 3 Este 7 Sudeste 0 -- -- 48
2019-10-10 08:00:00 19.9 0 Calma 12 Nordeste 0 -- -- 31
2019-10-10 07:00:00 20.9 10 Nordeste 15 Nordeste 0 -- -- 30
2019-10-10 06:00:00 20.9 12 Nordeste 17 Norte 0 -- -- 27
2019-10-10 05:00:00 20.9 9 Nordeste 15 Nordeste 0 -- -- 27
2019-10-10 04:00:00 21.1 12 Nordeste 19 Norte 0 -- -- 25
2019-10-10 03:00:00 21.2 13 Nordeste 20 Norte 0 -- -- 24
2019-10-10 02:00:00 21.4 14 Norte 23 Norte 0 -- -- 29
2019-10-10 01:00:00 21.8 15 Norte 26 Norte 0 -- -- 36
2019-10-10 00:00:00 21.8 17 Norte 26 Norte 0 -- -- 41
2019-10-09 23:00:00 22.7 15 Norte 23 Norte 0 -- -- 44
2019-10-09 22:00:00 23.3 16 Norte 26 Norte 0 -- -- 48
2019-10-09 21:00:00 24.4 12 Norte 23 Norte 0 -- -- 49
2019-10-09 20:00:00 25.6 13 Norte 20 Norte 0 -- -- 47
2019-10-09 19:00:00 27.6 12 Norte 21 Norte 0 -- -- 43
2019-10-09 18:00:00 29.5 12 Norte 22 Norte 0 -- -- 40
2019-10-09 17:00:00 31.4 10 Sudoeste 21 Sudoeste 0 -- -- 29
2019-10-09 16:00:00 30.4 10 Sudoeste 17 Sudoeste 0 -- -- 33
2019-10-09 15:00:00 29.6 9 Sudoeste 18 Sudoeste 0 -- -- 34
2019-10-09 14:00:00 28 6 Oeste 14 Sudoeste 0 -- -- 42
2019-10-09 13:00:00 24.9 8 Nordeste 17 Norte 0 -- -- 55
2019-10-09 12:00:00 23.6 9 Nordeste 18 Nordeste 0 -- -- 58
2019-10-09 11:00:00 22.9 10 Norte 17 Nordeste 0 -- -- 60
2019-10-09 10:00:00 21 3 Nordeste 19 Nordeste 0 -- -- 65
2019-10-09 09:00:00 19.1 6 Noroeste 24 Norte 0 -- -- 71
2019-10-09 08:00:00 18.4 11 Norte 27 Norte 0 -- -- 77
2019-10-09 07:00:00 20.4 18 Norte 27 Norte 0 -- -- 62
2019-10-09 06:00:00 21.6 9 Norte 14 Norte 0 -- -- 58
2019-10-09 05:00:00 22.9 12 Norte 18 Norte 0 -- -- 54
2019-10-09 04:00:00 22.9 14 Norte 21 Norte 0 -- -- 52
2019-10-09 03:00:00 22.2 12 Norte 22 Norte 0 -- -- 57
2019-10-09 02:00:00 23 13 Norte 25 Noroeste 0 -- -- 53
2019-10-09 01:00:00 23.9 14 Norte 25 Norte 0 -- -- 51
2019-10-09 00:00:00 21.6 5 Noroeste 8 Oeste 0 -- -- 46
2019-10-08 23:00:00 22.7 3 Noroeste 8 Sudoeste 0 -- -- 43
2019-10-08 22:00:00 24.1 6 Sudoeste 16 Sudoeste 0 -- -- 40
2019-10-08 21:00:00 25.4 9 Sudoeste 17 Sudoeste 0 -- -- 39
2019-10-08 20:00:00 27.3 11 Sudoeste 22 Sudoeste 0 -- -- 36
2019-10-08 19:00:00 30.1 14 Sur 22 Sur 0 -- -- 32
2019-10-08 18:00:00 31.2 11 Sudoeste 21 Sur 0 -- -- 30
2019-10-08 17:00:00 32.1 10 Sudoeste 19 Sudoeste 0 -- -- 28
2019-10-08 16:00:00 32 9 Sudoeste 30 Sudoeste 0 -- -- 28
2019-10-08 15:00:00 31.3 9 Noroeste 18 Oeste 0 -- -- 29
2019-10-08 14:00:00 30.3 4 Oeste 19 Sudoeste 0 -- -- 29
2019-10-08 13:00:00 29.3 8 Sudoeste 18 Sudoeste 0 -- -- 31
2019-10-08 12:00:00 27.8 6 Sudoeste 12 Sudoeste 0 -- -- 35
2019-10-08 11:00:00 26.2 8 Sur 13 Sur 0 -- -- 37
2019-10-08 10:00:00 22.3 2 Sur 9 Sudeste 0 -- -- 44
2019-10-08 09:00:00 20.3 3 Sudeste 10 Sudeste 0 -- -- 46
2019-10-08 08:00:00 20.9 6 Nordeste 12 Este 0 -- -- 42
2019-10-08 07:00:00 21 7 Nordeste 14 Nordeste 0 -- -- 40
2019-10-08 06:00:00 22 9 Nordeste 13 Nordeste 0 -- -- 38
2019-10-08 05:00:00 22.1 10 Nordeste 13 Nordeste 0 -- -- 37
2019-10-08 04:00:00 -- 9 Nordeste 12 Norte 0 -- -- --
2019-10-08 03:00:00 21.8 8 Nordeste 10 Norte 0 -- -- 37
2019-10-08 02:00:00 22.3 5 Nordeste 13 Nordeste 0 -- -- 36
2019-10-08 01:00:00 23.4 10 Nordeste 14 Norte 0 -- -- 34
2019-10-08 00:00:00 24.3 10 Norte 20 Norte 0 -- -- 33
2019-10-07 23:00:00 25 15 Norte 21 Norte 0 -- -- 30
2019-10-07 22:00:00 25.2 12 Norte 22 Norte 0 -- -- 30
2019-10-07 21:00:00 25.8 9 Norte 15 Norte 0 -- -- 29
2019-10-07 20:00:00 26.9 5 Norte 12 Nordeste 0 -- -- 29
2019-10-07 19:00:00 30.1 6 Nordeste 14 Norte 0 -- -- 25
2019-10-07 18:00:00 31 5 Nordeste 13 Norte 0 -- -- 25
2019-10-07 17:00:00 30.4 6 Nordeste 17 Norte 0 -- -- 24
2019-10-07 16:00:00 29.9 6 Nordeste 15 Nordeste 0 -- -- 24
2019-10-07 15:00:00 29 6 Norte 18 Norte 0 -- -- 25
2019-10-07 14:00:00 27.9 7 Norte 14 Nordeste 0 -- -- 25
2019-10-07 13:00:00 26.4 5 Nordeste 13 Nordeste 0 -- -- 29
2019-10-07 12:00:00 24.3 5 Nordeste 18 Norte 0 -- -- 34
2019-10-07 11:00:00 21.1 15 Nordeste 24 Norte 0 -- -- 41
2019-10-07 10:00:00 20 16 Norte 27 Norte 0 -- -- 41
2019-10-07 09:00:00 18.9 12 Norte 27 Norte 0 -- -- 43
2019-10-07 08:00:00 20 16 Norte 22 Norte 0 -- -- 39
2019-10-07 07:00:00 20.2 12 Norte 18 Norte 0 -- -- 39
2019-10-07 06:00:00 19.8 10 Norte 12 Norte 0 -- -- 40
2019-10-07 05:00:00 19.5 6 Norte 9 Norte 0 -- -- 41
2019-10-07 04:00:00 20.4 7 Norte 15 Norte 0 -- -- 39
2019-10-07 03:00:00 21.2 5 Noroeste 26 Noroeste 0 -- -- 42
2019-10-07 02:00:00 20.8 14 Norte 28 Norte 0 -- -- 49
2019-10-07 01:00:00 22 12 Norte 21 Norte 0 -- -- 35
2019-10-07 00:00:00 22.1 11 Norte 21 Norte 0 -- -- 35
2019-10-06 23:00:00 22.4 12 Norte 19 Norte 0 -- -- 35
2019-10-06 22:00:00 22.4 11 Norte 24 Norte 0 -- -- 31
2019-10-06 21:00:00 23.1 14 Norte 27 Norte 0 -- -- 35
2019-10-06 20:00:00 24.8 12 Norte 18 Norte 0 -- -- 33
2019-10-06 19:00:00 27.2 8 Norte 16 Norte 0 -- -- 27
2019-10-06 18:00:00 28.1 9 Norte 22 Norte 0 -- -- 25
2019-10-06 17:00:00 28.2 10 Norte 20 Norte 0 -- -- 25
2019-10-06 16:00:00 28.2 10 Norte 26 Norte 0 -- -- 27
2019-10-06 15:00:00 27.7 9 Norte 21 Norte 0 -- -- 29
2019-10-06 14:00:00 26.2 5 Nordeste 17 Nordeste 0 -- -- 31
2019-10-06 13:00:00 24.5 5 Nordeste 14 Nordeste 0 -- -- 35
2019-10-06 12:00:00 22.9 8 Nordeste 17 Este 0 -- -- 44
2019-10-06 11:00:00 21.6 8 Nordeste 15 Nordeste 0 -- -- 48
2019-10-06 10:00:00 19.8 11 Nordeste 15 Norte 0 -- -- 53
2019-10-06 09:00:00 17.5 13 Nordeste 16 Nordeste 0 -- -- 54
2019-10-06 08:00:00 17.1 13 Norte 21 Norte 0 -- -- 51
2019-10-06 07:00:00 16.9 15 Norte 25 Norte 0 -- -- 53
2019-10-06 06:00:00 17.4 15 Norte 23 Norte 0 -- -- 52
2019-10-06 05:00:00 17.3 9 Norte 23 Norte 0 -- -- 54
2019-10-06 04:00:00 16.3 0 Calma 21 Norte 0 -- -- 58
2019-10-06 03:00:00 17.2 7 Noroeste 24 Norte 0 -- -- 56
2019-10-06 02:00:00 18.4 3 Noroeste 23 Norte 0 -- -- 56
2019-10-06 01:00:00 19.6 16 Norte 23 Norte 0 -- -- 56
2019-10-06 00:00:00 19.1 10 Norte 22 Norte 0 -- -- 52
2019-10-05 23:00:00 19.9 17 Norte 28 Norte 0 -- -- 51
2019-10-05 22:00:00 20.2 17 Norte 26 Norte 0 -- -- 47
2019-10-05 21:00:00 21.6 17 Norte 26 Norte 0 -- -- 42
2019-10-05 20:00:00 23.5 11 Norte 19 Norte 0 -- -- 34
2019-10-05 19:00:00 25 11 Norte 23 Norte 0 -- -- 31
2019-10-05 18:00:00 28 10 Norte 19 Norte 0 -- -- 33
2019-10-05 17:00:00 28.2 5 Sudoeste 15 Oeste 0 -- -- 35
2019-10-05 16:00:00 26.5 7 Sudoeste 15 Sudoeste 0 -- -- 38
2019-10-05 15:00:00 26.4 8 Sur 17 Sudoeste 0 -- -- 39
2019-10-05 14:00:00 25.4 6 Oeste 18 Sudoeste 0 -- -- 41
2019-10-05 13:00:00 24 7 Oeste 15 Oeste 0 -- -- 49
2019-10-05 12:00:00 22.6 7 Sudoeste 13 Sudoeste 0 -- -- 54
2019-10-05 11:00:00 20 5 Nordeste 10 Este 0 -- -- 65
2019-10-05 10:00:00 18 6 Nordeste 10 Nordeste 0 -- -- 72
2019-10-05 09:00:00 16.1 9 Nordeste 15 Norte 0 -- -- 78
2019-10-05 08:00:00 15.6 13 Nordeste 15 Norte 0 -- -- 78
2019-10-05 07:00:00 16 3 Noroeste 20 Norte 0 -- -- 76
2019-10-05 06:00:00 16.3 14 Norte 21 Norte 0 -- -- 75
2019-10-05 05:00:00 16 15 Norte 26 Norte 0 -- -- 76
2019-10-05 04:00:00 15.9 20 Norte 29 Norte 0 -- -- 76
2019-10-05 03:00:00 17.5 18 Norte 25 Norte 0 -- -- 70
2019-10-05 02:00:00 18.8 13 Norte 20 Norte 0 -- -- 64
2019-10-05 01:00:00 19.1 6 Norte 12 Norte 0 -- -- 60
2019-10-05 00:00:00 20.1 8 Norte 15 Norte 0 -- -- 56
2019-10-04 23:00:00 20.1 8 Norte 11 Norte 0 -- -- 59
2019-10-04 22:00:00 20.6 3 Oeste 9 Sudoeste 0 -- -- 52
2019-10-04 21:00:00 22.1 4 Oeste 10 Sudoeste 0 -- -- 48
2019-10-04 20:00:00 24.4 6 Sudoeste 16 Sudoeste 0 -- -- 43
2019-10-04 19:00:00 27.1 11 Sudoeste 19 Sudoeste 0 -- -- 38
2019-10-04 18:00:00 27.9 10 Sudoeste 24 Sur 0 -- -- 36
2019-10-04 17:00:00 28.3 10 Sudoeste 22 Sudoeste 0 -- -- 37
2019-10-04 16:00:00 27.5 8 Oeste 21 Sudoeste 0 -- -- 37
2019-10-04 15:00:00 26.7 11 Sudoeste 24 Sudoeste 0 -- -- 38
2019-10-04 14:00:00 25.6 13 Sudoeste 24 Sudoeste 0 -- -- 39
2019-10-04 13:00:00 24.2 11 Sudoeste 22 Sudoeste 0 -- -- 46
2019-10-04 12:00:00 22.5 9 Sudoeste 15 Sudoeste 0 -- -- 53
2019-10-04 11:00:00 20.9 5 Sudoeste 8 Sudoeste 0 -- -- 59
2019-10-04 10:00:00 17.7 2 Sur 4 Nordeste 0 -- -- 71
2019-10-04 09:00:00 15 2 Nordeste 6 Norte 0 -- -- 78
2019-10-04 08:00:00 14.7 3 Norte 5 Norte 0 -- -- 80
2019-10-04 07:00:00 15.3 2 Norte 6 Nordeste 0 -- -- 76
2019-10-04 06:00:00 16.4 0 Calma 7 Nordeste 0 -- -- 72
2019-10-04 05:00:00 16 2 Norte 9 Norte 0 -- -- 73
2019-10-04 04:00:00 16.9 4 Norte 9 Nordeste 0 -- -- 74
2019-10-04 03:00:00 17.8 3 Sudeste 24 Norte 0 -- -- 69
2019-10-04 02:00:00 18.4 19 Norte 27 Norte 0 -- -- 54
2019-10-04 01:00:00 20.1 10 Norte 25 Noroeste 0 -- -- 48
2019-10-04 00:00:00 21.2 13 Norte 22 Noroeste 0 -- -- 28
2019-10-03 23:00:00 21.6 14 Norte 23 Noroeste 0 -- -- 33
2019-10-03 22:00:00 21.6 8 Norte 17 Norte 0 -- -- 36
2019-10-03 21:00:00 22.1 9 Norte 18 Noroeste 0 -- -- 33
2019-10-03 20:00:00 23.2 9 Norte 15 Norte 0 -- -- 31
2019-10-03 19:00:00 25.7 8 Norte 24 Norte 0 -- -- 27
2019-10-03 18:00:00 26.3 10 Norte 24 Norte 0 -- -- 27
2019-10-03 17:00:00 27 13 Norte 24 Norte 0 -- -- 25
2019-10-03 16:00:00 26.6 9 Norte 21 Norte 0 -- -- 26
2019-10-03 15:00:00 25.7 12 Norte 22 Nordeste 0 -- -- 28
2019-10-03 14:00:00 24.6 12 Norte 26 Norte 0 -- -- 31
2019-10-03 13:00:00 24 6 Oeste 13 Sur 0 -- -- 36
2019-10-03 12:00:00 21.9 6 Oeste 12 Oeste 0 -- -- 43
2019-10-03 11:00:00 -- -- -- -- -- -- -- -- --
2019-10-03 10:00:00 -- -- -- -- -- -- -- -- --
2019-10-03 09:00:00 17.2 5 Norte 15 Norte 0 -- -- 49
2019-10-03 08:00:00 17.6 12 Norte 16 Norte 0 -- -- 46
2019-10-03 07:00:00 14.1 2 Nordeste 14 Norte 0 -- -- 55
2019-10-03 06:00:00 17.8 14 Norte 19 Norte 0 -- -- 45
2019-10-03 05:00:00 16.8 6 Noroeste 15 Norte 0 -- -- 49
2019-10-03 04:00:00 16.8 4 Noroeste 17 Noroeste 0 -- -- 52
2019-10-03 03:00:00 17.8 10 Norte 27 Norte 0 -- -- 50
2019-10-03 02:00:00 18.3 17 Norte 27 Norte 0 -- -- 51
2019-10-03 01:00:00 19 14 Norte 24 Noroeste 0 -- -- 46
2019-10-03 00:00:00 19.3 11 Norte 25 Noroeste 0 -- -- 42
2019-10-02 23:00:00 19.9 12 Norte 22 Noroeste 0 -- -- 37
2019-10-02 22:00:00 20.1 10 Norte 23 Norte 0 -- -- 37
2019-10-02 21:00:00 21 15 Norte 22 Norte 0 -- -- 35
2019-10-02 20:00:00 22.2 12 Norte 19 Norte 0 -- -- 31
2019-10-02 19:00:00 24.2 12 Norte 23 Norte 0 -- -- 28
2019-10-02 18:00:00 25.2 11 Norte 22 Nordeste 0 -- -- 25
2019-10-02 17:00:00 25.3 10 Norte 20 Norte 0 -- -- 25
2019-10-02 16:00:00 24.7 8 Norte 21 Noroeste 0 -- -- 28
2019-10-02 15:00:00 23.1 11 Norte 23 Norte 0 -- -- 38
2019-10-02 14:00:00 22.9 11 Norte 22 Norte 0 -- -- 37
2019-10-02 13:00:00 20.3 6 Sudoeste 14 Sudoeste 0 -- -- 53
2019-10-02 12:00:00 17.7 8 Sudoeste 14 Sur 0 -- -- 62
2019-10-02 11:00:00 15 3 Sur 8 Sudoeste 0 -- -- 71
2019-10-02 10:00:00 12.8 4 Sudoeste 15 Nordeste 0 -- -- 80
2019-10-02 09:00:00 13.3 9 Norte 26 Norte 0 -- -- 76
2019-10-02 08:00:00 13.6 16 Norte 28 Norte 0 -- -- 73
2019-10-02 07:00:00 12.5 17 Norte 28 Norte 0 -- -- 84
2019-10-02 06:00:00 12 13 Norte 25 Norte 0 -- -- 84
2019-10-02 05:00:00 12.9 17 Norte 33 Norte 0 -- -- 78
2019-10-02 04:00:00 14.1 21 Norte 35 Norte 0 -- -- 69
2019-10-02 03:00:00 14.9 19 Norte 30 Norte 0 -- -- 68
2019-10-02 02:00:00 15.6 8 Norte 24 Noroeste 0 -- -- 72
2019-10-02 01:00:00 17.1 5 Norte 33 Noroeste 0 -- -- 64
2019-10-02 00:00:00 18.6 10 Noroeste 29 Noroeste 0 -- -- 58
2019-10-01 23:00:00 19.5 9 Noroeste 22 Norte 0 -- -- 55
2019-10-01 22:00:00 19.8 8 Noroeste 23 Oeste 0 -- -- 53
2019-10-01 21:00:00 20.3 8 Noroeste 17 Noroeste 0 -- -- 53
2019-10-01 20:00:00 21.8 7 Noroeste 24 Norte 0 -- -- 49
2019-10-01 19:00:00 23.5 14 Noroeste 29 Norte 0 -- -- 46
2019-10-01 18:00:00 24.7 12 Noroeste 28 Noroeste 0 -- -- 44
2019-10-01 17:00:00 24.7 13 Noroeste 31 Noroeste 0 -- -- 44
2019-10-01 16:00:00 24.7 13 Noroeste 32 Norte 0 -- -- 41
2019-10-01 15:00:00 24.5 13 Norte 27 Noroeste 0 -- -- 39
2019-10-01 14:00:00 23.5 15 Norte 28 Noroeste 0 -- -- 42
2019-10-01 13:00:00 22.9 12 Norte 23 Norte 0 -- -- 47
2019-10-01 12:00:00 21.7 8 Norte 24 Norte 0 -- -- 54
2019-10-01 11:00:00 19.5 7 Oeste 11 Oeste 0 -- -- 58
2019-10-01 10:00:00 17.2 3 Sudoeste 8 Oeste 0 -- -- 64
2019-10-01 09:00:00 15.8 0 Calma 18 Norte 0 -- -- 75
2019-10-01 08:00:00 16.2 4 Nordeste 12 Norte 0 -- -- 66
2019-10-01 07:00:00 18.1 4 Oeste 15 Noroeste 0 -- -- 50
2019-10-01 06:00:00 19.2 6 Noroeste 12 Noroeste 0 -- -- 49
2019-10-01 05:00:00 18.7 8 Norte 13 Norte 0 -- -- 57
2019-10-01 04:00:00 17.6 5 Noroeste 13 Noroeste 0 -- -- 51
2019-10-01 03:00:00 18 2 Nordeste 12 Noroeste 0 -- -- 51
2019-10-01 02:00:00 19.5 6 Noroeste 11 Noroeste 0 -- -- 49
2019-10-01 01:00:00 19.8 2 Norte 6 Oeste 0 -- -- 50
2019-10-01 00:00:00 20.2 2 Norte 4 Oeste 0 -- -- 49
2019-09-30 23:00:00 21.6 3 Sudoeste 13 Sudoeste 0 -- -- 45
2019-09-30 22:00:00 23 8 Sudoeste 13 Sudoeste 0 -- -- 43
2019-09-30 21:00:00 24.7 9 Sudoeste 20 Sudoeste 0 -- -- 39
2019-09-30 20:00:00 26.4 14 Sudoeste 22 Sur 0 -- -- 36
2019-09-30 19:00:00 28.8 14 Sudoeste 23 Sudoeste 0 -- -- 34
2019-09-30 18:00:00 30 13 Sudoeste 24 Sudoeste 0 -- -- 30
2019-09-30 17:00:00 31 12 Sudoeste 22 Sudoeste 0 -- -- 25
2019-09-30 16:00:00 30.9 8 Oeste 22 Sur 0 -- -- 27
2019-09-30 15:00:00 30.2 9 Oeste 21 Sur 0 -- -- 26
2019-09-30 14:00:00 29.2 6 Sudoeste 14 Oeste 0 -- -- 27
2019-09-30 13:00:00 27.9 5 Oeste 13 Sudoeste 0 -- -- 30
2019-09-30 12:00:00 26.2 6 Sudoeste 11 Sudoeste 0 -- -- 28
2019-09-30 11:00:00 24.3 5 Sudoeste 8 Sur 0 -- -- 32
2019-09-30 10:00:00 21.3 2 Sur 8 Nordeste 0 -- -- 34
2019-09-30 09:00:00 18.6 3 Norte 8 Norte 0 -- -- 36
2019-09-30 08:00:00 18.8 7 Norte 9 Norte 0 -- -- 32
2019-09-30 07:00:00 19.7 4 Nordeste 8 Nordeste 0 -- -- 30
2019-09-30 06:00:00 20.2 6 Norte 12 Nordeste 0 -- -- 29
2019-09-30 05:00:00 21.2 6 Norte 15 Norte 0 -- -- 27
2019-09-30 04:00:00 20.5 3 Noroeste 14 Noroeste 0 -- -- 31
2019-09-30 03:00:00 21.3 3 Noroeste 14 Norte 0 -- -- 27
2019-09-30 02:00:00 22.1 7 Norte 15 Norte 0 -- -- 37
2019-09-30 01:00:00 20.7 5 Norte 8 Norte 0 -- -- 41
2019-09-30 00:00:00 20.5 6 Norte 8 Nordeste 0 -- -- 48
2019-09-29 23:00:00 21.5 6 Norte 8 Norte 0 -- -- 51
2019-09-29 22:00:00 22.7 3 Nordeste 8 Sudoeste 0 -- -- 43
2019-09-29 21:00:00 24.8 5 Sudoeste 18 Sudoeste 0 -- -- 37
2019-09-29 20:00:00 27.3 12 Sudoeste 18 Sudoeste 0 -- -- 32
2019-09-29 19:00:00 29.8 12 Sudoeste 26 Sur 0 -- -- 29
2019-09-29 18:00:00 31.2 7 Sudoeste 18 Sudoeste 0 -- -- 26
2019-09-29 17:00:00 30.9 10 Oeste 20 Sudoeste 0 -- -- 27
2019-09-29 16:00:00 30.7 9 Sudoeste 21 Sudoeste 0 -- -- 27
2019-09-29 15:00:00 29.9 8 Sudoeste 24 Oeste 0 -- -- 27
2019-09-29 14:00:00 28.8 11 Sudoeste 22 Sudoeste 0 -- -- 29
2019-09-29 13:00:00 27.1 10 Sudoeste 19 Sudoeste 0 -- -- 32
2019-09-29 12:00:00 25.8 7 Oeste 13 Sudoeste 0 -- -- 34
2019-09-29 11:00:00 24.3 3 Sur 6 Sur 0 -- -- 36
2019-09-29 10:00:00 21.4 2 Sur 10 Nordeste 0 -- -- 42
2019-09-29 09:00:00 18.5 8 Nordeste 9 Norte 0 -- -- 46
2019-09-29 08:00:00 18.1 5 Nordeste 12 Norte 0 -- -- 47
2019-09-29 07:00:00 18 8 Nordeste 10 Nordeste 0 -- -- 46
2019-09-29 06:00:00 18.7 6 Nordeste 12 Norte 0 -- -- 49
2019-09-29 05:00:00 19.5 5 Norte 8 Norte 0 -- -- 48
2019-09-29 04:00:00 18.4 3 Nordeste 6 Nordeste 0 -- -- 46
2019-09-29 03:00:00 19.1 0 Calma 6 Norte 0 -- -- 47
2019-09-29 02:00:00 21 0 Calma 14 Noroeste 0 -- -- 45
2019-09-29 01:00:00 21.9 6 Norte 9 Norte 0 -- -- 42
2019-09-29 00:00:00 21.1 4 Noroeste 9 Oeste 0 -- -- 39
2019-09-28 23:00:00 22.8 6 Sudoeste 10 Sudoeste 0 -- -- 35
2019-09-28 22:00:00 23.1 4 Sudoeste 13 Sudoeste 0 -- -- 34
2019-09-28 21:00:00 25 7 Sudoeste 13 Sur 0 -- -- 31
2019-09-28 20:00:00 27.9 10 Sudoeste 17 Sudoeste 0 -- -- 27
2019-09-28 19:00:00 30.3 9 Sudoeste 22 Oeste 0 -- -- 22
2019-09-28 18:00:00 30.7 10 Oeste 25 Sudoeste 0 -- -- 25
2019-09-28 17:00:00 31.1 9 Sudoeste 23 Sudoeste 0 -- -- 28
2019-09-28 16:00:00 31.2 11 Sudoeste 23 Sur 0 -- -- 26
2019-09-28 15:00:00 30.6 6 Sudoeste 22 Sudoeste 0 -- -- 28
2019-09-28 14:00:00 29.4 8 Oeste 16 Sudoeste 0 -- -- 31
2019-09-28 13:00:00 28 9 Oeste 17 Sur 0 -- -- 33
2019-09-28 12:00:00 26.5 7 Sudoeste 13 Nordeste 0 -- -- 36
2019-09-28 11:00:00 23.9 6 Nordeste 16 Nordeste 0 -- -- 37
2019-09-28 10:00:00 21.5 10 Nordeste 15 Nordeste 0 -- -- 36
2019-09-28 09:00:00 19.3 12 Nordeste 19 Nordeste 0 -- -- 40
2019-09-28 08:00:00 19.5 14 Nordeste 19 Nordeste 0 -- -- 38
2019-09-28 07:00:00 19.7 11 Nordeste 15 Nordeste 0 -- -- 37
2019-09-28 06:00:00 19.8 12 Nordeste 18 Norte 0 -- -- 37
2019-09-28 05:00:00 20.1 12 Norte 18 Norte 0 -- -- 37
2019-09-28 04:00:00 20.8 13 Norte 19 Nordeste 0 -- -- 37
2019-09-28 03:00:00 21.3 10 Norte 24 Norte 0 -- -- 35
2019-09-28 02:00:00 20.8 15 Norte 26 Norte 0 -- -- 43
2019-09-28 01:00:00 21.8 18 Norte 24 Norte 0 -- -- 35
2019-09-28 00:00:00 22.7 11 Norte 17 Norte 0 -- -- 36
2019-09-27 23:00:00 23 12 Norte 19 Norte 0 -- -- 36
2019-09-27 22:00:00 23.6 12 Norte 19 Norte 0 -- -- 37
2019-09-27 21:00:00 24.6 11 Norte 18 Norte 0 -- -- 37
2019-09-27 20:00:00 26 9 Norte 18 Norte 0 -- -- 35
2019-09-27 19:00:00 28 9 Norte 22 Noroeste 0 -- -- 33
2019-09-27 18:00:00 28.9 12 Norte 23 Norte 0 -- -- 31
2019-09-27 17:00:00 29.7 13 Norte 21 Norte 0 -- -- 30
2019-09-27 16:00:00 30.9 10 Sudeste 23 Sudoeste 0 -- -- 27
2019-09-27 15:00:00 29.1 8 Sur 19 Sudoeste 0 -- -- 29
2019-09-27 14:00:00 28.2 6 Sur 19 Sur 0 -- -- 32
2019-09-27 13:00:00 26.9 8 Oeste 14 Oeste 0 -- -- 37
2019-09-27 12:00:00 24.9 4 Este 10 Nordeste 0 -- -- 41
2019-09-27 11:00:00 22.9 6 Nordeste 12 Norte 0 -- -- 46
2019-09-27 10:00:00 21.3 8 Nordeste 13 Nordeste 0 -- -- 49
2019-09-27 09:00:00 18.5 6 Nordeste 14 Nordeste 0 -- -- 57
2019-09-27 08:00:00 19.1 11 Nordeste 16 Norte 0 -- -- 54
2019-09-27 07:00:00 19.2 9 Nordeste 15 Norte 0 -- -- 52
2019-09-27 06:00:00 19 4 Norte 15 Norte 0 -- -- 52
2019-09-27 05:00:00 19.6 10 Norte 17 Norte 0 -- -- 50
2019-09-27 04:00:00 20.3 15 Norte 24 Norte 0 -- -- 48
2019-09-27 03:00:00 20.1 15 Norte 23 Norte 0 -- -- 48
2019-09-27 02:00:00 20.7 12 Nordeste 14 Norte 0 -- -- 48
2019-09-27 01:00:00 20.9 10 Norte 14 Norte 0 -- -- 47
2019-09-27 00:00:00 21.8 11 Norte 17 Norte 0 -- -- 44
2019-09-26 23:00:00 22.2 10 Norte 15 Norte 0 -- -- 42
2019-09-26 22:00:00 22.3 6 Nordeste 9 Norte 0 -- -- 41
2019-09-26 21:00:00 23.7 2 Este 12 Norte 0 -- -- 39
2019-09-26 20:00:00 27.1 4 Norte 12 Oeste 0 -- -- 34
2019-09-26 19:00:00 29.3 8 Sudoeste 19 Sudoeste 0 -- -- 29
2019-09-26 18:00:00 29.9 9 Sudoeste 22 Sudoeste 0 -- -- 29
2019-09-26 17:00:00 29.3 9 Sudoeste 22 Sudoeste 0 -- -- 31
2019-09-26 16:00:00 28.4 9 Noroeste 18 Sur 0 -- -- 31
2019-09-26 15:00:00 27.8 9 Sudoeste 26 Sudoeste 0 -- -- 32
2019-09-26 14:00:00 26.3 7 Sudoeste 18 Sudoeste 0 -- -- 34
2019-09-26 13:00:00 25.2 9 Sudoeste 18 Sudoeste 0 -- -- 38
2019-09-26 12:00:00 23.7 8 Sudoeste 13 Sudoeste 0 -- -- 40
2019-09-26 11:00:00 22 3 Sur 9 Nordeste 0 -- -- 46
2019-09-26 10:00:00 19.6 6 Nordeste 11 Nordeste 0 -- -- 53
2019-09-26 09:00:00 17.3 9 Nordeste 13 Norte 0 -- -- 60
2019-09-26 08:00:00 16.6 11 Nordeste 16 Norte 0 -- -- 60
2019-09-26 07:00:00 16.9 13 Nordeste 17 Norte 0 -- -- 58
2019-09-26 06:00:00 17.3 12 Norte 21 Norte 0 -- -- 57
2019-09-26 05:00:00 17.2 14 Norte 20 Norte 0 -- -- 59
2019-09-26 04:00:00 17.3 12 Norte 24 Norte 0 -- -- 60
2019-09-26 03:00:00 17.3 15 Norte 25 Norte 0 -- -- 62
2019-09-26 02:00:00 17.5 15 Norte 27 Norte 0 -- -- 61
2019-09-26 01:00:00 18.9 15 Norte 24 Norte 0 -- -- 50
2019-09-26 00:00:00 19.4 13 Norte 24 Norte 0 -- -- 47
2019-09-25 23:00:00 19.7 12 Norte 21 Norte 0 -- -- 46
2019-09-25 22:00:00 20 10 Norte 19 Norte 0 -- -- 44
2019-09-25 21:00:00 20.6 5 Norte 13 Noroeste 0 -- -- 44
2019-09-25 20:00:00 22.5 6 Noroeste 24 Norte 0 -- -- 41
2019-09-25 19:00:00 24 8 Norte 21 Noroeste 0 -- -- 38
2019-09-25 18:00:00 24.4 11 Norte 22 Norte 0 -- -- 37
2019-09-25 17:00:00 24.3 13 Norte 22 Norte 0 -- -- 39
2019-09-25 16:00:00 23.6 11 Norte 23 Norte 0 -- -- 40
2019-09-25 15:00:00 22.9 11 Norte 22 Nordeste 0 -- -- 43
2019-09-25 14:00:00 21.6 10 Norte 22 Nordeste 0 -- -- 43
2019-09-25 13:00:00 20 8 Norte 20 Norte 0 -- -- 55
2019-09-25 12:00:00 17.6 12 Norte 25 Norte 0 -- -- 68
2019-09-25 11:00:00 15 16 Nordeste 28 Nordeste 0 -- -- 83
2019-09-25 10:00:00 13.1 15 Nordeste 31 Norte 0 -- -- 93
2019-09-25 09:00:00 12.3 23 Norte 34 Norte 0 -- -- 96
2019-09-25 08:00:00 12.6 18 Norte 30 Norte 0 -- -- 94
2019-09-25 07:00:00 13.2 17 Nordeste 27 Norte 0 -- -- 90
2019-09-25 06:00:00 14.2 15 Norte 27 Norte 0 -- -- 86
2019-09-25 05:00:00 14.8 12 Norte 26 Norte 0 -- -- 87
2019-09-25 04:00:00 15.8 18 Norte 31 Norte 0 -- -- 86
2019-09-25 03:00:00 16.9 18 Norte 26 Norte 0 -- -- 89
2019-09-25 02:00:00 17.8 15 Norte 25 Norte 0 -- -- 88
2019-09-25 01:00:00 18.8 15 Norte 24 Norte 0 -- -- 89
2019-09-25 00:00:00 19 10 Norte 21 Norte 0 -- -- 83
2019-09-24 23:00:00 20 14 Norte 22 Norte 0 -- -- 78
2019-09-24 22:00:00 21.2 11 Norte 20 Norte 0 -- -- 71
2019-09-24 21:00:00 22.3 13 Norte 24 Norte 0 -- -- 64
2019-09-24 20:00:00 24.4 14 Norte 25 Norte 0 -- -- 54
2019-09-24 19:00:00 28.7 9 Noroeste 25 Oeste 0 -- -- 31
2019-09-24 18:00:00 29.4 9 Oeste 21 Noroeste 0 -- -- 29
2019-09-24 17:00:00 29.4 10 Oeste 21 Oeste 0 -- -- 29
2019-09-24 16:00:00 28.6 8 Oeste 18 Oeste 0 -- -- 32
2019-09-24 15:00:00 27.2 7 Noroeste 22 Noroeste 0 -- -- 39
2019-09-24 14:00:00 26.4 8 Sudoeste 20 Sudoeste 0 -- -- 39
2019-09-24 13:00:00 24.3 6 Sudoeste 13 Sudoeste 0 -- -- 48
2019-09-24 12:00:00 21.8 7 Nordeste 14 Norte 0 -- -- 55
2019-09-24 11:00:00 19.5 7 Nordeste 19 Nordeste 0 -- -- 64
2019-09-24 10:00:00 17.1 13 Norte 28 Norte 0 -- -- 76
2019-09-24 09:00:00 16.1 16 Norte 25 Norte 0 -- -- 80
2019-09-24 08:00:00 15.9 12 Norte 19 Norte 0 -- -- 75
2019-09-24 07:00:00 16.4 11 Norte 21 Nordeste 0 -- -- 69
2019-09-24 06:00:00 16.9 15 Norte 22 Norte 0 -- -- 64
2019-09-24 05:00:00 17.7 10 Norte 20 Norte 0 -- -- 52
2019-09-24 04:00:00 18.5 13 Norte 15 Norte 0 -- -- 45
2019-09-24 03:00:00 18.4 12 Norte 17 Norte 0 -- -- 48
2019-09-24 02:00:00 18.1 11 Norte 19 Norte 0 -- -- 50
2019-09-24 01:00:00 19 16 Norte 20 Norte 0 -- -- 48
2019-09-24 00:00:00 19.1 13 Norte 19 Norte 0 -- -- 48
2019-09-23 23:00:00 19.7 12 Nordeste 18 Norte 0 -- -- 47
2019-09-23 22:00:00 21.2 11 Norte 15 Norte 0 -- -- 41
2019-09-23 21:00:00 21.9 10 Norte 14 Norte 0 -- -- 37
2019-09-23 20:00:00 23.3 5 Norte 9 Norte 0 -- -- 40
2019-09-23 19:00:00 24.9 6 Norte 13 Norte 0 -- -- 34
2019-09-23 18:00:00 25.1 6 Norte 14 Nordeste 0 -- -- 34
2019-09-23 17:00:00 24.4 5 Norte 16 Norte 0 -- -- 36
2019-09-23 16:00:00 23.6 5 Nordeste 16 Norte 0 -- -- 42
2019-09-23 15:00:00 22.3 8 Norte 18 Norte 0 -- -- 45
2019-09-23 14:00:00 21.2 7 Norte 14 Norte 0 -- -- 48
2019-09-23 13:00:00 20.3 6 Este 14 Este 0 -- -- 52
2019-09-23 12:00:00 18.6 7 Nordeste 14 Norte 0 -- -- 63
2019-09-23 11:00:00 16.8 10 Nordeste 14 Nordeste 0 -- -- 71
2019-09-23 10:00:00 15.3 10 Nordeste 14 Nordeste 0 -- -- 72
2019-09-23 09:00:00 13.8 10 Nordeste 15 Norte 0 -- -- 77
2019-09-23 08:00:00 13.5 10 Nordeste 15 Norte 0 -- -- 78
2019-09-23 07:00:00 14 13 Norte 21 Norte 0 -- -- 76
2019-09-23 06:00:00 13.8 14 Norte 19 Norte 0 -- -- 78
2019-09-23 05:00:00 13.7 12 Norte 20 Norte 0 -- -- 77
2019-09-23 04:00:00 14.5 11 Norte 17 Norte 0 -- -- 74
2019-09-23 03:00:00 15.3 9 Norte 14 Norte 0 -- -- 70
2019-09-23 02:00:00 15.5 10 Norte 16 Norte 0 -- -- 70
2019-09-23 01:00:00 15.7 9 Norte 18 Norte 0 -- -- 72
2019-09-23 00:00:00 16.4 10 Norte 20 Norte 0 -- -- 70
2019-09-22 23:00:00 16.7 7 Norte 12 Norte 0 -- -- 68
2019-09-22 22:00:00 17.1 7 Norte 16 Norte 0 -- -- 66
2019-09-22 21:00:00 17.7 10 Norte 16 Norte 0 -- -- 63
2019-09-22 20:00:00 18.5 6 Norte 16 Noroeste 0 -- -- 62
2019-09-22 19:00:00 20 8 Norte 18 Norte 0 -- -- 58
2019-09-22 18:00:00 20.5 10 Norte 19 Norte 0 -- -- 59
2019-09-22 17:00:00 20.8 8 Norte 22 Norte 0 -- -- 57
2019-09-22 16:00:00 20 6 Norte 21 Norte 0 -- -- 61
2019-09-22 15:00:00 18.8 10 Norte 24 Norte 0 -- -- 68
2019-09-22 14:00:00 18.3 12 Norte 23 Norte 0 -- -- 71
2019-09-22 13:00:00 16.7 11 Norte 24 Norte 0 -- -- 80
2019-09-22 12:00:00 15.1 15 Nordeste 25 Nordeste 0 -- -- 86
2019-09-22 11:00:00 14.1 18 Norte 29 Norte 0 -- -- 91
2019-09-22 10:00:00 13.4 14 Nordeste 25 Norte 0 -- -- 95
2019-09-22 09:00:00 14 8 Norte 19 Norte 0.4 -- -- 97
2019-09-22 08:00:00 14.3 12 Norte 21 Norte 1.4 -- -- 97
2019-09-22 07:00:00 16.3 9 Oeste 20 Sudoeste 2.2 -- -- 98
2019-09-22 06:00:00 16.3 11 Sudoeste 21 Sudoeste 2 -- -- 98
2019-09-22 05:00:00 16.1 11 Sudoeste 28 Sudoeste 0.6 -- -- 97
2019-09-22 04:00:00 16.4 13 Sudoeste 28 Sur 0.2 -- -- 94
2019-09-22 03:00:00 16.6 14 Sudoeste 31 Sudoeste 0 -- -- 92
2019-09-22 02:00:00 16.7 16 Sudoeste 36 Sudoeste 0 -- -- 93
2019-09-22 01:00:00 17.1 20 Sudoeste 32 Sudoeste 0 -- -- 93
2019-09-22 00:00:00 17.2 18 Sudoeste 33 Sudoeste 0 -- -- 93
2019-09-21 23:00:00 17.3 20 Sudoeste 35 Sudoeste 0 -- -- 91
2019-09-21 22:00:00 17.4 20 Sudoeste 35 Sudoeste 0 -- -- 91
2019-09-21 21:00:00 18.3 20 Sudoeste 31 Sur 0 -- -- 83
2019-09-21 20:00:00 18.7 16 Sudoeste 30 Sur 0 -- -- 81
2019-09-21 19:00:00 19.1 17 Sudoeste 30 Sudoeste 0 -- -- 80
2019-09-21 18:00:00 19.1 17 Sudoeste 31 Sudoeste 0.2 -- -- 81
2019-09-21 17:00:00 18.3 12 Sudoeste 25 Oeste 0.2 -- -- 87
2019-09-21 16:00:00 17.9 18 Sudoeste 31 Sudoeste 0 -- -- 86
2019-09-21 15:00:00 18 19 Sudoeste 30 Sudoeste 0 -- -- 82
2019-09-21 14:00:00 18.8 19 Sudoeste 33 Sudoeste 0 -- -- 76
2019-09-21 13:00:00 19 21 Sudoeste 33 Sudoeste 0 -- -- 71
2019-09-21 12:00:00 17.2 17 Sudoeste 26 Sudoeste 0 -- -- 74
2019-09-21 11:00:00 15.9 14 Sudoeste 22 Sur 0 -- -- 84
2019-09-21 10:00:00 15.6 13 Sudoeste 25 Sudoeste 0 -- -- 87
2019-09-21 09:00:00 15.6 14 Sudoeste 23 Sudoeste 0 -- -- 85
2019-09-21 08:00:00 16.1 13 Sudoeste 24 Sur 0 -- -- 82
2019-09-21 07:00:00 16.5 13 Sudoeste 22 Sudoeste 0 -- -- 80
2019-09-21 06:00:00 16.5 13 Sudoeste 25 Sudoeste 0 -- -- 84
2019-09-21 05:00:00 17 14 Sudoeste 24 Sudoeste 0 -- -- 86
2019-09-21 04:00:00 17.2 13 Sudoeste 21 Sudoeste 0 -- -- 84
2019-09-21 03:00:00 17.4 15 Sudoeste 25 Sudoeste 0 -- -- 81
2019-09-21 02:00:00 17.4 15 Sudoeste 24 Sur 0 -- -- 80
2019-09-21 01:00:00 17.3 17 Sudoeste 27 Sudoeste 0 -- -- 82
2019-09-21 00:00:00 17.7 15 Sudoeste 24 Sudoeste 0 -- -- 82
2019-09-20 23:00:00 17.8 9 Sudoeste 21 Sudoeste 0 -- -- 76
2019-09-20 22:00:00 18 10 Sudoeste 20 Sudoeste 0 -- -- 74
2019-09-20 21:00:00 19.1 11 Sudoeste 21 Sur 0 -- -- 67
2019-09-20 20:00:00 19.3 8 Sudoeste 24 Sudoeste 0 -- -- 74
2019-09-20 19:00:00 20.3 13 Sudoeste 22 Sudoeste 0 -- -- 67
2019-09-20 18:00:00 20.9 10 Sudoeste 28 Oeste 0 -- -- 63
2019-09-20 17:00:00 21.8 17 Sudoeste 31 Sudoeste 0 -- -- 61
2019-09-20 16:00:00 21.2 19 Sudoeste 34 Sudoeste 0 -- -- 64
2019-09-20 15:00:00 22.5 20 Sudoeste 33 Sudoeste 0 -- -- 59
2019-09-20 14:00:00 21.4 12 Sudoeste 24 Sudoeste 0 -- -- 65
2019-09-20 13:00:00 19.6 11 Sudoeste 22 Sur 0 -- -- 72
2019-09-20 12:00:00 18.5 13 Sudoeste 21 Sur 0 -- -- 74
2019-09-20 11:00:00 18.5 12 Sudoeste 19 Sudoeste 0 -- -- 69
2019-09-20 10:00:00 18 8 Sudoeste 18 Sudoeste 0 -- -- 66
2019-09-20 09:00:00 17.6 10 Sudoeste 16 Sudoeste 0 -- -- 65
2019-09-20 08:00:00 16.8 5 Sudoeste 11 Sudoeste 0 -- -- 65
2019-09-20 07:00:00 17.3 7 Sudoeste 15 Sur 0 -- -- 61
2019-09-20 06:00:00 17.9 8 Sur 14 Sudoeste 0 -- -- 57
2019-09-20 05:00:00 18.4 10 Sur 17 Sudoeste 0 -- -- 55
2019-09-20 04:00:00 18.9 10 Sudoeste 21 Sudoeste 0 -- -- 53
2019-09-20 03:00:00 19.3 12 Sudoeste 18 Sudoeste 0 -- -- 51
2019-09-20 02:00:00 19.2 10 Sudoeste 17 Sudoeste 0 -- -- 52
2019-09-20 01:00:00 19.3 6 Sudoeste 11 Sudoeste 0 -- -- 60
2019-09-20 00:00:00 19.3 6 Sudoeste 10 Sudoeste 0 -- -- 60
2019-09-19 23:00:00 20.1 5 Sudoeste 9 Sudoeste 0 -- -- 55
2019-09-19 22:00:00 21.1 6 Sudoeste 16 Sur 0 -- -- 51
2019-09-19 21:00:00 22.6 11 Sudoeste 22 Sudoeste 0 -- -- 45
2019-09-19 20:00:00 24.4 11 Sudoeste 17 Sudoeste 0 -- -- 36
2019-09-19 19:00:00 25.8 10 Sudoeste 24 Sudoeste 0 -- -- 35
2019-09-19 18:00:00 26.5 13 Sudoeste 25 Sudoeste 0 -- -- 34
2019-09-19 17:00:00 28.1 13 Sur 22 Sur 0 -- -- 32
2019-09-19 16:00:00 27.6 14 Sudoeste 29 Sur 0 -- -- 35
2019-09-19 15:00:00 27.3 13 Sur 45 Sur 0 -- -- 36
2019-09-19 14:00:00 26.4 10 Sur 25 Sudoeste 0 -- -- 39
2019-09-19 13:00:00 25.4 9 Sudoeste 18 Sudoeste 0 -- -- 46
2019-09-19 12:00:00 23.4 9 Sudoeste 17 Sudoeste 0 -- -- 48
2019-09-19 11:00:00 21.4 6 Nordeste 11 Nordeste 0 -- -- 59
2019-09-19 10:00:00 19.4 2 Este 8 Nordeste 0 -- -- 65
2019-09-19 09:00:00 16.4 3 Nordeste 5 Nordeste 0 -- -- 75
2019-09-19 08:00:00 15.6 4 Nordeste 5 Norte 0 -- -- 78
2019-09-19 07:00:00 17.2 3 Norte 21 Norte 0 -- -- 74
2019-09-19 06:00:00 17.3 17 Norte 22 Norte 0 -- -- 76
2019-09-19 05:00:00 17.7 8 Norte 18 Norte 0 -- -- 71
2019-09-19 04:00:00 17.5 2 Noroeste 9 Norte 0 -- -- 66
2019-09-19 03:00:00 17.7 7 Nordeste 12 Nordeste 0 -- -- 66
2019-09-19 02:00:00 17.5 2 Nordeste 6 Norte 0 -- -- 68
2019-09-19 01:00:00 18.8 5 Norte 8 Norte 0 -- -- 66
2019-09-19 00:00:00 20 6 Sudoeste 10 Oeste 0 -- -- 61
2019-09-18 23:00:00 20.2 6 Sudoeste 9 Sudoeste 0 -- -- 60
2019-09-18 22:00:00 21.3 7 Sudoeste 18 Sur 0 -- -- 57
2019-09-18 21:00:00 22.8 10 Sudoeste 17 Sudoeste 0 -- -- 51
2019-09-18 20:00:00 24.4 8 Sudoeste 14 Oeste 0 -- -- 44
2019-09-18 19:00:00 25.7 8 Oeste 21 Sudoeste 0 -- -- 43
2019-09-18 18:00:00 26.8 9 Sudoeste 17 Sudoeste 0 -- -- 39
2019-09-18 17:00:00 27.4 10 Oeste 23 Oeste 0 -- -- 34
2019-09-18 16:00:00 26.6 9 Oeste 24 Sudoeste 0 -- -- 44
2019-09-18 15:00:00 25.8 13 Sudoeste 23 Sudoeste 0 -- -- 48
2019-09-18 14:00:00 25.2 6 Sudoeste 21 Sur 0 -- -- 53
2019-09-18 13:00:00 23.7 12 Sudoeste 19 Sudoeste 0 -- -- 56
2019-09-18 12:00:00 22.3 12 Sur 21 Sur 0 -- -- 64
2019-09-18 11:00:00 20.3 9 Sudoeste 16 Sudoeste 0 -- -- 71
2019-09-18 10:00:00 18.6 7 Sudoeste 13 Sur 0 -- -- 76
2019-09-18 09:00:00 17.2 6 Sudoeste 13 Sudoeste 0 -- -- 82
2019-09-18 08:00:00 17.3 8 Sudoeste 14 Sudoeste 0 -- -- 81
2019-09-18 07:00:00 17.5 9 Sudoeste 16 Sudoeste 0 -- -- 80
2019-09-18 06:00:00 17.8 6 Sudoeste 11 Sudoeste 0 -- -- 80
2019-09-18 05:00:00 18.2 7 Sudoeste 12 Sudoeste 0 -- -- 83
2019-09-18 04:00:00 18.8 6 Sudoeste 11 Sudoeste 0 -- -- 81
2019-09-18 03:00:00 18.8 6 Sudoeste 10 Sudoeste 0 -- -- 75
2019-09-18 02:00:00 19.2 4 Sudoeste 7 Sudoeste 0 -- -- 71
2019-09-18 01:00:00 19.8 0 Calma 7 Sudoeste 0 -- -- 68
2019-09-18 00:00:00 20.5 6 Oeste 14 Sudoeste 0 -- -- 64
2019-09-17 23:00:00 21.2 8 Sudoeste 14 Sudoeste 0 -- -- 62
2019-09-17 22:00:00 22.1 9 Sudoeste 19 Sudoeste 0 -- -- 58
2019-09-17 21:00:00 23.2 10 Sudoeste 23 Sudoeste 0 -- -- 54